createdAt,value
2023-04-16T00:09:16.673Z,7.24
2023-04-16T00:39:19.647Z,7.33
2023-04-16T01:09:22.566Z,7.17
2023-04-16T01:39:25.472Z,7.38
2023-04-16T02:09:28.383Z,7.10
2023-04-16T02:39:31.328Z,7.16
2023-04-16T03:09:34.373Z,7.24
2023-04-16T03:39:37.361Z,7.01
2023-04-16T04:09:40.268Z,7.00
2023-04-16T04:39:43.335Z,6.97
2023-04-16T05:09:47.318Z,6.94
2023-04-16T05:39:50.263Z,7.11
2023-04-16T06:09:53.176Z,7.11
2023-04-16T06:39:56.147Z,7.22
2023-04-16T07:09:59.489Z,7.63
2023-04-16T07:40:02.470Z,8.07
2023-04-16T08:10:06.678Z,8.15
2023-04-16T08:40:10.621Z,8.37
2023-04-16T09:10:14.766Z,8.29
2023-04-16T09:40:24.357Z,8.38
2023-04-16T10:10:27.315Z,8.79
2023-04-16T10:40:30.343Z,9.22
2023-04-16T11:10:39.024Z,9.74
2023-04-16T11:40:42.356Z,9.81
2023-04-16T12:10:54.937Z,10.08
2023-04-16T12:40:57.929Z,10.80
2023-04-16T13:11:00.860Z,11.77
2023-04-16T13:41:06.076Z,12.98
2023-04-16T14:11:10.087Z,12.36
2023-04-16T14:41:13.128Z,11.62
2023-04-16T15:11:16.105Z,11.39
2023-04-16T15:41:19.085Z,11.46
2023-04-16T16:11:22.033Z,11.78
2023-04-16T16:41:25.455Z,11.16
2023-04-16T17:11:28.434Z,10.64
2023-04-16T17:41:31.369Z,10.47
2023-04-16T18:11:34.664Z,10.13
2023-04-16T18:41:37.688Z,9.86
2023-04-16T19:11:40.933Z,9.71
2023-04-16T19:41:43.863Z,9.55
2023-04-16T20:11:47.257Z,9.46
2023-04-16T20:41:51.084Z,9.14
2023-04-16T21:11:54.272Z,8.88
2023-04-16T21:41:57.333Z,9.06
2023-04-16T22:12:00.816Z,9.17
2023-04-16T22:42:04.234Z,9.13
2023-04-16T23:12:07.532Z,9.01
2023-04-16T23:42:10.457Z,9.02
